sensor_id;sensor_type;location;lat;lon;timestamp;pressure;altitude;pressure_sealevel;temperature;humidity
34081;BME280;20358;50.272;19.026;2023-05-01T00:00:40;98770.25;;;5.64;43.17
34081;BME280;20358;50.272;19.026;2023-05-01T00:03:46;98768.56;;;5.63;42.89
34081;BME280;20358;50.272;19.026;2023-05-01T00:06:55;98769.63;;;5.59;42.89
34081;BME280;20358;50.272;19.026;2023-05-01T00:10:01;98767.94;;;5.58;43.09
34081;BME280;20358;50.272;19.026;2023-05-01T00:13:07;98767.13;;;5.56;43.74
34081;BME280;20358;50.272;19.026;2023-05-01T00:16:13;98771.75;;;5.50;44.09
34081;BME280;20358;50.272;19.026;2023-05-01T00:19:21;98764.97;;;5.46;44.25
34081;BME280;20358;50.272;19.026;2023-05-01T00:22:29;98762.72;;;5.39;45.05
34081;BME280;20358;50.272;19.026;2023-05-01T00:25:35;98760.28;;;5.34;44.73
34081;BME280;20358;50.272;19.026;2023-05-01T00:28:41;98763.19;;;5.28;44.40
34081;BME280;20358;50.272;19.026;2023-05-01T00:31:47;98757.31;;;5.23;44.27
34081;BME280;20358;50.272;19.026;2023-05-01T00:34:53;98759.16;;;5.21;44.76
34081;BME280;20358;50.272;19.026;2023-05-01T00:38:03;98764.53;;;5.18;45.13
34081;BME280;20358;50.272;19.026;2023-05-01T00:41:09;98757.72;;;5.14;45.10
34081;BME280;20358;50.272;19.026;2023-05-01T00:44:15;98759.69;;;5.09;45.42
34081;BME280;20358;50.272;19.026;2023-05-01T00:47:21;98760.00;;;5.03;46.02
34081;BME280;20358;50.272;19.026;2023-05-01T00:50:27;98758.44;;;4.99;46.57
34081;BME280;20358;50.272;19.026;2023-05-01T00:53:39;98760.53;;;4.91;47.04
34081;BME280;20358;50.272;19.026;2023-05-01T00:56:46;98752.03;;;4.86;47.34
34081;BME280;20358;50.272;19.026;2023-05-01T00:59:52;98764.63;;;4.78;46.53
34081;BME280;20358;50.272;19.026;2023-05-01T01:02:59;98762.16;;;4.75;46.50
34081;BME280;20358;50.272;19.026;2023-05-01T01:06:13;98763.13;;;4.72;46.89
34081;BME280;20358;50.272;19.026;2023-05-01T01:09:40;98755.56;;;4.66;47.37
34081;BME280;20358;50.272;19.026;2023-05-01T01:13:03;98760.06;;;4.63;47.38
34081;BME280;20358;50.272;19.026;2023-05-01T01:16:22;98756.09;;;4.54;47.82
34081;BME280;20358;50.272;19.026;2023-05-01T01:20:08;98762.47;;;4.49;48.39
34081;BME280;20358;50.272;19.026;2023-05-01T01:27:57;98753.44;;;4.36;48.13
34081;BME280;20358;50.272;19.026;2023-05-01T01:31:31;98752.63;;;4.34;49.48
34081;BME280;20358;50.272;19.026;2023-05-01T01:34:53;98747.69;;;4.27;48.35
34081;BME280;20358;50.272;19.026;2023-05-01T01:38:05;98745.84;;;4.29;48.77
34081;BME280;20358;50.272;19.026;2023-05-01T01:41:23;98729.72;;;4.20;49.28
34081;BME280;20358;50.272;19.026;2023-05-01T01:44:40;98749.66;;;4.22;49.06
34081;BME280;20358;50.272;19.026;2023-05-01T01:47:53;98739.31;;;4.19;50.02
34081;BME280;20358;50.272;19.026;2023-05-01T01:51:09;98732.50;;;4.15;50.04
34081;BME280;20358;50.272;19.026;2023-05-01T01:54:23;98703.72;;;3.97;50.15
34081;BME280;20358;50.272;19.026;2023-05-01T01:57:35;98719.97;;;4.03;50.35
34081;BME280;20358;50.272;19.026;2023-05-01T02:00:44;98646.25;;;3.55;49.49
34081;BME280;20358;50.272;19.026;2023-05-01T02:03:52;98731.34;;;4.02;49.80
34081;BME280;20358;50.272;19.026;2023-05-01T02:07:04;98724.53;;;3.98;50.52
34081;BME280;20358;50.272;19.026;2023-05-01T02:10:14;98723.88;;;3.93;50.65
34081;BME280;20358;50.272;19.026;2023-05-01T02:13:23;98718.84;;;3.89;51.09
34081;BME280;20358;50.272;19.026;2023-05-01T02:16:34;98717.34;;;3.83;51.65
34081;BME280;20358;50.272;19.026;2023-05-01T02:19:44;98715.81;;;3.78;51.39
34081;BME280;20358;50.272;19.026;2023-05-01T02:22:56;98705.47;;;3.75;51.79
34081;BME280;20358;50.272;19.026;2023-05-01T02:26:08;98710.03;;;3.69;52.64
34081;BME280;20358;50.272;19.026;2023-05-01T02:29:20;98709.31;;;3.66;52.15
34081;BME280;20358;50.272;19.026;2023-05-01T02:32:26;98705.13;;;3.62;53.21
34081;BME280;20358;50.272;19.026;2023-05-01T02:35:38;98701.97;;;3.54;53.12
34081;BME280;20358;50.272;19.026;2023-05-01T02:38:48;98693.38;;;3.52;52.96
34081;BME280;20358;50.272;19.026;2023-05-01T02:41:57;98694.34;;;3.49;53.43
34081;BME280;20358;50.272;19.026;2023-05-01T02:45:09;98696.28;;;3.44;53.39
34081;BME280;20358;50.272;19.026;2023-05-01T02:48:26;98697.50;;;3.36;53.61
34081;BME280;20358;50.272;19.026;2023-05-01T02:51:34;98695.97;;;3.30;54.68
34081;BME280;20358;50.272;19.026;2023-05-01T02:54:45;98696.16;;;3.26;54.23
34081;BME280;20358;50.272;19.026;2023-05-01T02:57:52;98694.59;;;3.22;54.92
34081;BME280;20358;50.272;19.026;2023-05-01T03:00:58;98692.09;;;3.19;54.24
34081;BME280;20358;50.272;19.026;2023-05-01T03:04:04;98699.19;;;3.15;54.53
34081;BME280;20358;50.272;19.026;2023-05-01T03:07:11;98690.69;;;3.10;55.26
34081;BME280;20358;50.272;19.026;2023-05-01T03:10:19;98693.38;;;3.09;54.87
34081;BME280;20358;50.272;19.026;2023-05-01T03:13:25;98690.09;;;3.03;55.41
34081;BME280;20358;50.272;19.026;2023-05-01T03:16:31;98696.13;;;3.04;54.56
34081;BME280;20358;50.272;19.026;2023-05-01T03:19:37;98688.38;;;3.02;55.72
34081;BME280;20358;50.272;19.026;2023-05-01T03:22:43;98695.44;;;3.00;56.13
34081;BME280;20358;50.272;19.026;2023-05-01T03:25:53;98690.22;;;3.00;56.12
34081;BME280;20358;50.272;19.026;2023-05-01T03:29:00;98693.59;;;3.02;56.09
34081;BME280;20358;50.272;19.026;2023-05-01T03:32:06;98691.06;;;3.01;56.33
34081;BME280;20358;50.272;19.026;2023-05-01T03:35:12;98688.50;;;2.99;55.25
34081;BME280;20358;50.272;19.026;2023-05-01T03:38:19;98692.94;;;2.97;55.54
34081;BME280;20358;50.272;19.026;2023-05-01T03:41:50;98688.50;;;2.99;55.37
34081;BME280;20358;50.272;19.026;2023-05-01T03:44:59;98694.50;;;3.01;56.23
34081;BME280;20358;50.272;19.026;2023-05-01T03:48:05;98689.94;;;3.06;55.82
34081;BME280;20358;50.272;19.026;2023-05-01T03:51:11;98686.44;;;3.07;55.42
34081;BME280;20358;50.272;19.026;2023-05-01T03:54:19;98700.38;;;3.06;55.40
34081;BME280;20358;50.272;19.026;2023-05-01T03:57:47;98688.16;;;3.09;56.12
34081;BME280;20358;50.272;19.026;2023-05-01T04:00:54;98684.50;;;3.13;56.01
34081;BME280;20358;50.272;19.026;2023-05-01T04:04:03;98682.53;;;3.19;56.49
34081;BME280;20358;50.272;19.026;2023-05-01T04:07:12;98674.53;;;3.22;55.14
34081;BME280;20358;50.272;19.026;2023-05-01T04:10:21;98677.00;;;3.27;55.99
34081;BME280;20358;50.272;19.026;2023-05-01T04:13:34;98668.97;;;3.31;54.80
34081;BME280;20358;50.272;19.026;2023-05-01T04:16:41;98669.75;;;3.33;54.44
34081;BME280;20358;50.272;19.026;2023-05-01T04:19:48;98670.38;;;3.40;53.43
34081;BME280;20358;50.272;19.026;2023-05-01T04:22:54;98665.66;;;3.48;54.38
34081;BME280;20358;50.272;19.026;2023-05-01T04:26:00;98667.25;;;3.52;52.66
34081;BME280;20358;50.272;19.026;2023-05-01T04:29:09;98666.28;;;3.54;52.18
34081;BME280;20358;50.272;19.026;2023-05-01T04:32:15;98671.38;;;3.57;52.29
34081;BME280;20358;50.272;19.026;2023-05-01T04:35:21;98670.94;;;3.68;52.21
34081;BME280;20358;50.272;19.026;2023-05-01T04:38:28;98662.69;;;3.77;52.34
34081;BME280;20358;50.272;19.026;2023-05-01T04:41:36;98668.47;;;3.85;51.72
34081;BME280;20358;50.272;19.026;2023-05-01T04:44:44;98672.53;;;3.92;52.56
34081;BME280;20358;50.272;19.026;2023-05-01T04:47:51;98672.16;;;4.01;51.88
34081;BME280;20358;50.272;19.026;2023-05-01T04:50:56;98659.22;;;3.98;52.03
34081;BME280;20358;50.272;19.026;2023-05-01T04:54:06;98664.41;;;4.18;52.00
34081;BME280;20358;50.272;19.026;2023-05-01T04:57:13;98664.81;;;4.29;52.62
34081;BME280;20358;50.272;19.026;2023-05-01T05:00:22;98677.50;;;4.39;51.89
34081;BME280;20358;50.272;19.026;2023-05-01T05:03:31;98676.16;;;4.49;52.36
34081;BME280;20358;50.272;19.026;2023-05-01T05:06:38;98668.72;;;4.58;52.51
34081;BME280;20358;50.272;19.026;2023-05-01T05:09:49;98669.28;;;4.65;51.54
34081;BME280;20358;50.272;19.026;2023-05-01T05:12:57;98625.84;;;4.44;52.44
34081;BME280;20358;50.272;19.026;2023-05-01T05:16:06;98673.31;;;4.90;52.11
34081;BME280;20358;50.272;19.026;2023-05-01T05:19:12;98676.94;;;5.07;51.78
34081;BME280;20358;50.272;19.026;2023-05-01T05:22:19;98655.00;;;5.09;51.14
34081;BME280;20358;50.272;19.026;2023-05-01T05:25:45;98662.06;;;5.26;50.82
34081;BME280;20358;50.272;19.026;2023-05-01T05:28:51;98670.81;;;5.43;50.49
34081;BME280;20358;50.272;19.026;2023-05-01T05:32:01;98669.28;;;5.57;50.56
34081;BME280;20358;50.272;19.026;2023-05-01T05:35:08;98672.00;;;5.72;49.99
34081;BME280;20358;50.272;19.026;2023-05-01T05:38:14;98669.91;;;5.79;48.73
34081;BME280;20358;50.272;19.026;2023-05-01T05:41:23;98658.06;;;5.89;48.19
34081;BME280;20358;50.272;19.026;2023-05-01T05:44:33;98642.16;;;5.92;47.41
34081;BME280;20358;50.272;19.026;2023-05-01T05:47:43;98653.66;;;6.06;47.54
34081;BME280;20358;50.272;19.026;2023-05-01T05:50:50;98664.81;;;6.27;46.63
34081;BME280;20358;50.272;19.026;2023-05-01T05:53:55;98661.63;;;6.38;46.12
34081;BME280;20358;50.272;19.026;2023-05-01T05:57:02;98669.09;;;6.45;45.12
34081;BME280;20358;50.272;19.026;2023-05-01T06:00:11;98667.13;;;6.49;44.79
34081;BME280;20358;50.272;19.026;2023-05-01T06:03:26;98663.34;;;6.54;44.39
34081;BME280;20358;50.272;19.026;2023-05-01T06:06:35;98659.28;;;6.64;45.06
34081;BME280;20358;50.272;19.026;2023-05-01T06:09:41;98652.66;;;6.74;45.00
34081;BME280;20358;50.272;19.026;2023-05-01T06:12:47;98661.38;;;6.91;44.37
34081;BME280;20358;50.272;19.026;2023-05-01T06:16:02;98653.88;;;7.00;43.61
34081;BME280;20358;50.272;19.026;2023-05-01T06:19:13;98658.00;;;7.04;43.58
34081;BME280;20358;50.272;19.026;2023-05-01T06:22:21;98666.16;;;7.15;43.98
34081;BME280;20358;50.272;19.026;2023-05-01T06:26:14;98670.44;;;7.32;43.93
34081;BME280;20358;50.272;19.026;2023-05-01T06:29:20;98664.50;;;7.44;42.87
34081;BME280;20358;50.272;19.026;2023-05-01T06:32:26;98655.56;;;7.62;42.48
34081;BME280;20358;50.272;19.026;2023-05-01T06:35:37;98656.56;;;7.75;42.89
34081;BME280;20358;50.272;19.026;2023-05-01T06:38:47;98652.28;;;7.88;41.64
34081;BME280;20358;50.272;19.026;2023-05-01T06:41:54;98650.22;;;7.93;41.00
34081;BME280;20358;50.272;19.026;2023-05-01T06:45:07;98658.34;;;8.05;41.65
34081;BME280;20358;50.272;19.026;2023-05-01T06:48:14;98660.81;;;8.22;40.84
34081;BME280;20358;50.272;19.026;2023-05-01T06:51:22;98652.91;;;8.36;39.92
34081;BME280;20358;50.272;19.026;2023-05-01T06:54:29;98657.81;;;8.42;40.55
34081;BME280;20358;50.272;19.026;2023-05-01T06:57:35;98645.16;;;8.48;39.85
34081;BME280;20358;50.272;19.026;2023-05-01T07:00:42;98641.94;;;8.57;39.42
34081;BME280;20358;50.272;19.026;2023-05-01T07:03:47;98645.97;;;8.63;39.66
34081;BME280;20358;50.272;19.026;2023-05-01T07:06:56;98652.19;;;8.76;39.78
34081;BME280;20358;50.272;19.026;2023-05-01T07:10:02;98641.91;;;8.86;38.96
34081;BME280;20358;50.272;19.026;2023-05-01T07:13:09;98642.56;;;8.89;38.39
34081;BME280;20358;50.272;19.026;2023-05-01T07:16:14;98640.31;;;8.97;38.92
34081;BME280;20358;50.272;19.026;2023-05-01T07:19:21;98644.59;;;9.12;38.75
34081;BME280;20358;50.272;19.026;2023-05-01T07:22:30;98635.19;;;9.22;38.72
34081;BME280;20358;50.272;19.026;2023-05-01T07:25:36;98643.25;;;9.34;37.47
34081;BME280;20358;50.272;19.026;2023-05-01T07:28:42;98639.69;;;9.47;38.15
34081;BME280;20358;50.272;19.026;2023-05-01T07:31:49;98643.53;;;9.56;38.15
34081;BME280;20358;50.272;19.026;2023-05-01T07:34:54;98649.53;;;9.58;37.74
34081;BME280;20358;50.272;19.026;2023-05-01T07:38:03;98645.22;;;9.57;36.98
34081;BME280;20358;50.272;19.026;2023-05-01T07:41:09;98636.25;;;9.59;38.35
34081;BME280;20358;50.272;19.026;2023-05-01T07:44:16;98635.03;;;9.65;37.52
34081;BME280;20358;50.272;19.026;2023-05-01T07:47:22;98631.41;;;9.66;37.68
34081;BME280;20358;50.272;19.026;2023-05-01T07:50:29;98637.66;;;9.65;37.80
34081;BME280;20358;50.272;19.026;2023-05-01T07:53:38;98628.78;;;9.66;37.66
34081;BME280;20358;50.272;19.026;2023-05-01T07:56:45;98630.63;;;9.78;37.84
34081;BME280;20358;50.272;19.026;2023-05-01T07:59:53;98640.41;;;9.89;37.65
34081;BME280;20358;50.272;19.026;2023-05-01T08:03:01;98625.03;;;9.95;37.57
34081;BME280;20358;50.272;19.026;2023-05-01T08:06:07;98628.41;;;9.97;37.74
34081;BME280;20358;50.272;19.026;2023-05-01T08:09:16;98403.78;;;8.63;37.36
34081;BME280;20358;50.272;19.026;2023-05-01T08:12:22;98624.63;;;10.01;36.71
34081;BME280;20358;50.272;19.026;2023-05-01T08:15:28;98624.41;;;10.04;37.37
34081;BME280;20358;50.272;19.026;2023-05-01T08:18:34;98623.25;;;10.08;37.29
34081;BME280;20358;50.272;19.026;2023-05-01T08:21:41;98634.88;;;10.18;37.37
34081;BME280;20358;50.272;19.026;2023-05-01T08:24:50;98628.25;;;10.25;36.97
34081;BME280;20358;50.272;19.026;2023-05-01T08:27:56;98608.38;;;10.20;36.38
34081;BME280;20358;50.272;19.026;2023-05-01T08:31:02;98619.19;;;10.29;36.10
34081;BME280;20358;50.272;19.026;2023-05-01T08:34:09;98610.72;;;10.37;36.26
34081;BME280;20358;50.272;19.026;2023-05-01T08:37:14;98609.47;;;10.42;35.79
34081;BME280;20358;50.272;19.026;2023-05-01T08:40:25;98610.94;;;10.47;35.63
34081;BME280;20358;50.272;19.026;2023-05-01T08:43:31;98604.38;;;10.52;35.38
34081;BME280;20358;50.272;19.026;2023-05-01T08:46:45;98556.56;;;10.31;35.61
34081;BME280;20358;50.272;19.026;2023-05-01T08:49:53;98607.97;;;10.64;34.69
34081;BME280;20358;50.272;19.026;2023-05-01T08:53:02;98614.69;;;10.68;34.62
34081;BME280;20358;50.272;19.026;2023-05-01T08:56:12;98605.59;;;10.72;34.53
34081;BME280;20358;50.272;19.026;2023-05-01T08:59:22;98599.25;;;10.74;34.51
34081;BME280;20358;50.272;19.026;2023-05-01T09:02:33;98601.59;;;10.79;34.26
34081;BME280;20358;50.272;19.026;2023-05-01T09:05:41;98597.53;;;10.86;34.30
34081;BME280;20358;50.272;19.026;2023-05-01T09:08:48;98597.13;;;10.92;33.93
34081;BME280;20358;50.272;19.026;2023-05-01T09:12:00;98596.66;;;10.98;34.06
34081;BME280;20358;50.272;19.026;2023-05-01T09:15:13;98593.78;;;11.01;33.53
34081;BME280;20358;50.272;19.026;2023-05-01T09:18:20;98592.84;;;11.02;33.05
34081;BME280;20358;50.272;19.026;2023-05-01T09:21:27;98560.94;;;10.92;33.01
34081;BME280;20358;50.272;19.026;2023-05-01T09:24:34;98588.78;;;11.09;33.66
34081;BME280;20358;50.272;19.026;2023-05-01T09:27:43;98585.81;;;11.14;33.36
34081;BME280;20358;50.272;19.026;2023-05-01T09:30:50;98565.72;;;11.11;32.99
34081;BME280;20358;50.272;19.026;2023-05-01T09:33:58;98570.91;;;11.13;33.66
34081;BME280;20358;50.272;19.026;2023-05-01T09:37:05;98577.56;;;11.18;33.85
34081;BME280;20358;50.272;19.026;2023-05-01T09:40:13;98564.41;;;11.29;33.82
34081;BME280;20358;50.272;19.026;2023-05-01T09:43:29;98556.97;;;11.34;33.58
34081;BME280;20358;50.272;19.026;2023-05-01T09:46:40;98567.97;;;11.41;33.05
34081;BME280;20358;50.272;19.026;2023-05-01T09:49:47;98570.69;;;11.39;32.22
34081;BME280;20358;50.272;19.026;2023-05-01T09:52:53;98559.91;;;11.42;33.01
34081;BME280;20358;50.272;19.026;2023-05-01T09:56:00;98557.28;;;11.53;32.74
34081;BME280;20358;50.272;19.026;2023-05-01T09:59:17;98560.22;;;11.61;32.16
34081;BME280;20358;50.272;19.026;2023-05-01T10:02:28;98555.19;;;11.70;32.14
34081;BME280;20358;50.272;19.026;2023-05-01T10:05:42;98552.06;;;11.76;31.71
34081;BME280;20358;50.272;19.026;2023-05-01T10:08:49;98548.09;;;11.81;30.28
34081;BME280;20358;50.272;19.026;2023-05-01T10:11:55;98561.00;;;11.86;30.18
34081;BME280;20358;50.272;19.026;2023-05-01T10:15:06;98546.81;;;11.98;30.12
34081;BME280;20358;50.272;19.026;2023-05-01T10:18:28;98529.25;;;11.97;30.46
34081;BME280;20358;50.272;19.026;2023-05-01T10:21:35;98534.91;;;12.03;31.19
34081;BME280;20358;50.272;19.026;2023-05-01T10:24:42;98529.00;;;12.00;30.22
34081;BME280;20358;50.272;19.026;2023-05-01T10:27:50;98533.59;;;12.09;29.80
34081;BME280;20358;50.272;19.026;2023-05-01T10:30:59;98535.28;;;12.10;30.63
34081;BME280;20358;50.272;19.026;2023-05-01T10:34:09;98531.19;;;12.17;30.33
34081;BME280;20358;50.272;19.026;2023-05-01T10:37:24;98522.06;;;12.21;29.70
34081;BME280;20358;50.272;19.026;2023-05-01T10:40:49;98520.16;;;12.23;29.94
34081;BME280;20358;50.272;19.026;2023-05-01T10:44:19;98510.16;;;12.26;29.77
34081;BME280;20358;50.272;19.026;2023-05-01T10:47:47;98511.34;;;12.34;29.95
34081;BME280;20358;50.272;19.026;2023-05-01T10:51:06;98508.34;;;12.38;29.84
34081;BME280;20358;50.272;19.026;2023-05-01T10:54:23;98504.72;;;12.50;30.49
34081;BME280;20358;50.272;19.026;2023-05-01T10:57:43;98504.97;;;12.58;30.90
34081;BME280;20358;50.272;19.026;2023-05-01T11:01:26;98501.19;;;12.72;30.32
34081;BME280;20358;50.272;19.026;2023-05-01T11:04:49;98503.94;;;12.81;30.31
34081;BME280;20358;50.272;19.026;2023-05-01T11:08:28;98493.81;;;12.86;29.71
34081;BME280;20358;50.272;19.026;2023-05-01T11:11:47;98462.25;;;12.83;28.81
34081;BME280;20358;50.272;19.026;2023-05-01T11:15:04;98477.84;;;12.98;28.88
34081;BME280;20358;50.272;19.026;2023-05-01T11:18:10;98482.28;;;13.08;28.32
34081;BME280;20358;50.272;19.026;2023-05-01T11:21:28;98477.09;;;13.18;29.07
34081;BME280;20358;50.272;19.026;2023-05-01T11:24:35;98470.31;;;13.25;28.69
34081;BME280;20358;50.272;19.026;2023-05-01T11:27:46;98468.81;;;13.32;29.15
34081;BME280;20358;50.272;19.026;2023-05-01T11:30:54;98462.41;;;13.34;28.15
34081;BME280;20358;50.272;19.026;2023-05-01T11:34:01;98452.63;;;13.35;28.88
34081;BME280;20358;50.272;19.026;2023-05-01T11:37:10;98447.78;;;13.40;28.24
34081;BME280;20358;50.272;19.026;2023-05-01T11:40:21;98447.03;;;13.49;27.33
34081;BME280;20358;50.272;19.026;2023-05-01T11:43:29;98448.28;;;13.55;27.88
34081;BME280;20358;50.272;19.026;2023-05-01T11:46:35;98439.09;;;13.59;26.96
34081;BME280;20358;50.272;19.026;2023-05-01T11:49:41;98428.53;;;13.68;27.36
34081;BME280;20358;50.272;19.026;2023-05-01T11:52:51;98431.38;;;13.76;27.51
34081;BME280;20358;50.272;19.026;2023-05-01T11:55:56;98426.25;;;13.84;27.38
34081;BME280;20358;50.272;19.026;2023-05-01T11:59:15;98428.97;;;13.94;27.20
34081;BME280;20358;50.272;19.026;2023-05-01T12:02:21;98421.59;;;13.97;26.46
34081;BME280;20358;50.272;19.026;2023-05-01T12:05:30;98419.09;;;14.05;27.33
34081;BME280;20358;50.272;19.026;2023-05-01T12:08:47;98418.16;;;14.16;26.67
34081;BME280;20358;50.272;19.026;2023-05-01T12:11:56;98412.88;;;14.26;26.13
34081;BME280;20358;50.272;19.026;2023-05-01T12:15:05;98406.19;;;14.31;26.32
34081;BME280;20358;50.272;19.026;2023-05-01T12:18:14;98415.84;;;14.42;26.47
34081;BME280;20358;50.272;19.026;2023-05-01T12:21:22;98403.41;;;14.52;26.84
34081;BME280;20358;50.272;19.026;2023-05-01T12:24:33;98392.25;;;14.58;26.64
34081;BME280;20358;50.272;19.026;2023-05-01T12:27:42;98384.13;;;14.59;26.49
34081;BME280;20358;50.272;19.026;2023-05-01T12:30:48;98355.84;;;14.49;27.27
34081;BME280;20358;50.272;19.026;2023-05-01T12:33:59;98378.53;;;14.62;28.64
34081;BME280;20358;50.272;19.026;2023-05-01T12:37:07;98361.00;;;14.50;27.41
34081;BME280;20358;50.272;19.026;2023-05-01T12:40:16;98374.91;;;14.73;27.53
34081;BME280;20358;50.272;19.026;2023-05-01T12:43:29;98382.06;;;14.82;27.86
34081;BME280;20358;50.272;19.026;2023-05-01T12:46:36;98371.13;;;14.85;27.27
34081;BME280;20358;50.272;19.026;2023-05-01T12:49:43;98369.44;;;14.84;27.30
34081;BME280;20358;50.272;19.026;2023-05-01T12:52:49;98362.31;;;14.85;26.88
34081;BME280;20358;50.272;19.026;2023-05-01T12:56:00;98351.16;;;14.81;27.76
34081;BME280;20358;50.272;19.026;2023-05-01T12:59:05;98346.38;;;14.85;28.99
34081;BME280;20358;50.272;19.026;2023-05-01T13:02:13;98316.16;;;14.76;29.67
34081;BME280;20358;50.272;19.026;2023-05-01T13:05:21;98338.81;;;14.99;29.40
34081;BME280;20358;50.272;19.026;2023-05-01T13:08:29;98336.28;;;15.07;29.74
34081;BME280;20358;50.272;19.026;2023-05-01T13:11:40;98335.41;;;15.16;29.35
34081;BME280;20358;50.272;19.026;2023-05-01T13:14:47;98334.69;;;15.24;29.38
34081;BME280;20358;50.272;19.026;2023-05-01T13:17:53;98318.28;;;15.28;30.14
34081;BME280;20358;50.272;19.026;2023-05-01T13:21:10;98318.78;;;15.42;29.13
34081;BME280;20358;50.272;19.026;2023-05-01T13:24:18;98324.22;;;15.50;29.52
34081;BME280;20358;50.272;19.026;2023-05-01T13:27:28;98320.59;;;15.60;29.36
34081;BME280;20358;50.272;19.026;2023-05-01T13:30:34;98302.91;;;15.59;28.90
34081;BME280;20358;50.272;19.026;2023-05-01T13:33:41;98314.41;;;15.69;29.18
34081;BME280;20358;50.272;19.026;2023-05-01T13:36:47;98313.94;;;15.74;29.59
34081;BME280;20358;50.272;19.026;2023-05-01T13:39:56;98306.94;;;15.73;29.46
34081;BME280;20358;50.272;19.026;2023-05-01T13:43:12;98285.63;;;15.73;28.87
34081;BME280;20358;50.272;19.026;2023-05-01T13:46:21;98302.09;;;15.86;28.94
34081;BME280;20358;50.272;19.026;2023-05-01T13:49:28;98278.97;;;15.86;29.77
34081;BME280;20358;50.272;19.026;2023-05-01T13:52:40;98279.91;;;15.95;29.68
34081;BME280;20358;50.272;19.026;2023-05-01T13:55:47;98275.94;;;15.99;29.62
34081;BME280;20358;50.272;19.026;2023-05-01T13:58:58;98281.75;;;16.12;29.05
34081;BME280;20358;50.272;19.026;2023-05-01T14:02:17;98279.84;;;16.22;29.48
34081;BME280;20358;50.272;19.026;2023-05-01T14:05:26;98277.00;;;16.33;29.37
34081;BME280;20358;50.272;19.026;2023-05-01T14:08:32;98278.59;;;16.44;29.06
34081;BME280;20358;50.272;19.026;2023-05-01T14:11:43;98264.13;;;16.46;28.62
34081;BME280;20358;50.272;19.026;2023-05-01T14:14:53;98262.13;;;16.48;28.48
34081;BME280;20358;50.272;19.026;2023-05-01T14:18:03;98186.97;;;16.10;28.61
34081;BME280;20358;50.272;19.026;2023-05-01T14:21:09;98263.41;;;16.62;28.48
34081;BME280;20358;50.272;19.026;2023-05-01T14:24:16;98262.88;;;16.59;28.20
34081;BME280;20358;50.272;19.026;2023-05-01T14:27:22;98260.28;;;16.67;28.98
34081;BME280;20358;50.272;19.026;2023-05-01T14:30:33;98248.69;;;16.76;28.83
34081;BME280;20358;50.272;19.026;2023-05-01T14:33:41;98249.06;;;16.81;28.58
34081;BME280;20358;50.272;19.026;2023-05-01T14:36:49;98249.31;;;16.95;28.56
34081;BME280;20358;50.272;19.026;2023-05-01T14:39:55;98244.59;;;17.07;28.35
34081;BME280;20358;50.272;19.026;2023-05-01T14:43:01;98227.34;;;17.01;27.82
34081;BME280;20358;50.272;19.026;2023-05-01T14:46:11;98246.31;;;17.16;28.20
34081;BME280;20358;50.272;19.026;2023-05-01T14:49:20;98162.09;;;16.88;28.30
34081;BME280;20358;50.272;19.026;2023-05-01T14:52:27;98236.06;;;17.37;28.07
34081;BME280;20358;50.272;19.026;2023-05-01T14:55:33;98238.13;;;17.43;27.51
34081;BME280;20358;50.272;19.026;2023-05-01T14:58:40;98238.81;;;17.53;27.98
34081;BME280;20358;50.272;19.026;2023-05-01T15:01:49;98232.81;;;17.59;27.47
34081;BME280;20358;50.272;19.026;2023-05-01T15:04:55;98233.16;;;17.56;27.99
34081;BME280;20358;50.272;19.026;2023-05-01T15:08:02;98230.09;;;17.51;27.89
34081;BME280;20358;50.272;19.026;2023-05-01T15:11:11;98229.63;;;17.48;27.82
34081;BME280;20358;50.272;19.026;2023-05-01T15:14:20;98223.59;;;17.46;27.62
34081;BME280;20358;50.272;19.026;2023-05-01T15:17:28;98220.94;;;17.54;27.21
34081;BME280;20358;50.272;19.026;2023-05-01T15:20:35;98215.47;;;17.55;27.16
34081;BME280;20358;50.272;19.026;2023-05-01T15:23:41;98213.63;;;17.56;27.22
34081;BME280;20358;50.272;19.026;2023-05-01T15:26:48;98214.81;;;17.69;27.13
34081;BME280;20358;50.272;19.026;2023-05-01T15:29:53;98210.94;;;18.14;26.88
34081;BME280;20358;50.272;19.026;2023-05-01T15:33:03;98215.63;;;18.68;26.97
34081;BME280;20358;50.272;19.026;2023-05-01T15:36:09;98208.41;;;19.09;26.67
34081;BME280;20358;50.272;19.026;2023-05-01T15:39:15;98201.06;;;19.50;25.91
34081;BME280;20358;50.272;19.026;2023-05-01T15:42:21;98191.78;;;19.99;25.40
34081;BME280;20358;50.272;19.026;2023-05-01T15:45:27;98191.16;;;20.57;25.55
34081;BME280;20358;50.272;19.026;2023-05-01T15:48:36;98194.78;;;21.16;24.45
34081;BME280;20358;50.272;19.026;2023-05-01T15:51:43;98187.41;;;21.69;23.69
34081;BME280;20358;50.272;19.026;2023-05-01T15:54:48;98183.28;;;22.23;23.61
34081;BME280;20358;50.272;19.026;2023-05-01T15:57:55;98190.16;;;22.75;22.57
34081;BME280;20358;50.272;19.026;2023-05-01T16:01:00;98184.41;;;23.12;22.67
34081;BME280;20358;50.272;19.026;2023-05-01T16:04:09;98182.69;;;23.39;22.25
34081;BME280;20358;50.272;19.026;2023-05-01T16:07:15;98181.22;;;23.77;22.09
34081;BME280;20358;50.272;19.026;2023-05-01T16:10:23;98175.06;;;24.03;21.30
34081;BME280;20358;50.272;19.026;2023-05-01T16:13:29;98181.78;;;24.20;21.24
34081;BME280;20358;50.272;19.026;2023-05-01T16:16:40;98174.72;;;24.32;20.68
34081;BME280;20358;50.272;19.026;2023-05-01T16:19:48;98182.22;;;24.30;21.30
34081;BME280;20358;50.272;19.026;2023-05-01T16:22:57;98189.69;;;24.28;20.88
34081;BME280;20358;50.272;19.026;2023-05-01T16:26:03;98187.19;;;24.33;21.12
34081;BME280;20358;50.272;19.026;2023-05-01T16:29:10;98174.53;;;24.27;21.01
34081;BME280;20358;50.272;19.026;2023-05-01T16:32:16;98183.88;;;24.18;20.81
34081;BME280;20358;50.272;19.026;2023-05-01T16:35:26;98173.34;;;23.82;20.77
34081;BME280;20358;50.272;19.026;2023-05-01T16:38:32;98171.63;;;23.61;21.07
34081;BME280;20358;50.272;19.026;2023-05-01T16:41:43;98180.63;;;23.34;21.27